• Join FlightAware (Why Join?)
  • Login
  • US Flag 
08:02AM EST


 

Airport Tracker/Info


-or-


 

Live Flight TrackerFlight Track Log ✈ EJA941 ✈ 18-Jun-2013 ✈ KMKE - KMKC

Flight Track Log - Related Links

Times and Time Zones

All times are in EDT time to prevent confusion due to time zone crossing. See the EJA941 flight status page for this flight to view local times or setup timezone preferences in your user account.

Time Position Orientation Groundspeed Altitude Reporting Facility
EDT Latitude Longitude Course Direction KTS MPH feet Rate Location/Type
06:23AM 42.9500 -87.9000 327° Northwest 163 188 1,300  Level KMKE
06:25AM 43.0053 -87.9494 327° Northwest 245 282 5,000 2,880 Climbing Chicago Center
06:26AM 42.9989 -88.0508 265° West 267 307 8,300 2,820 Climbing Chicago Center
06:27AM 42.9908 -88.1533 264° West 269 310 10,800 2,280 Climbing Chicago Center
06:28AM 42.9861 -88.2756 267° West 315 362 12,900 1,920 Climbing Chicago Center
06:29AM 42.9897 -88.4014 272° West 327 376 14,700 1,920 Climbing Chicago Center
06:30AM 42.9925 -88.5383 272° West 349 402 16,800 2,340 Climbing Chicago Center
06:31AM 42.9953 -88.6700 272° West 346 398 19,500 1,800 Climbing Chicago Center
06:32AM 42.9967 -88.8056 271° West 351 404 20,500 1,260 Climbing Chicago Center
06:33AM 42.9997 -88.9542 272° West 382 440 22,100 1,500 Climbing Chicago Center
06:34AM 43.0044 -89.1083 272° West 399 459 23,600 1,560 Climbing Chicago Center
06:35AM 42.9903 -89.2614 263° West 417 480 25,300 1,680 Climbing Chicago Center
06:36AM 42.9108 -89.3783 227° Southwest 424 488 27,100 1,740 Climbing Chicago Center
06:37AM 42.8217 -89.4875 222° Southwest 429 494 28,900 1,380 Climbing Chicago Center
06:38AM 42.7306 -89.5972 222° Southwest 434 499 30,000 540 Climbing Chicago Center
06:39AM 42.6350 -89.7158 222° Southwest 460 529 30,000  Level Chicago Center
06:40AM 42.5367 -89.8344 222° Southwest 470 541 30,000  Level Chicago Center
06:41AM 42.4406 -89.9500 222° Southwest 466 536 30,000  Level Chicago Center
06:42AM 42.3444 -90.0661 222° Southwest 465 535 30,000  Level Chicago Center
06:43AM 42.2481 -90.1808 221° Southwest 465 535 30,000  Level Chicago Center
06:44AM 42.1519 -90.2956 222° Southwest 465 535 30,000  Level Chicago Center
06:45AM 42.0361 -90.4308 221° Southwest 462 532 30,000  Level Chicago Center
06:46AM 41.9428 -90.5414 221° Southwest 454 522 30,000  Level Chicago Center
06:47AM 41.8481 -90.6558 222° Southwest 460 529 30,000  Level Chicago Center
06:48AM 41.7547 -90.7642 221° Southwest 448 516 30,000  Level Chicago Center
06:49AM 41.6619 -90.8717 221° Southwest 444 511 30,000  Level Chicago Center
06:50AM 41.5714 -90.9783 221° Southwest 440 506 30,000  Level Chicago Center
06:51AM 41.4817 -91.0817 221° Southwest 439 505 30,000  Level Chicago Center
06:52AM 41.3903 -91.1864 221° Southwest 437 503 30,000  Level Chicago Center
06:53AM 41.2981 -91.2917 221° Southwest 438 504 30,000  Level Chicago Center
06:54AM 41.2053 -91.3972 221° Southwest 440 506 30,000  Level Chicago Center
06:55AM 41.1131 -91.5033 221° Southwest 440 506 30,000  Level Chicago Center
06:56AM 41.0192 -91.6081 220° Southwest 442 509 30,000  Level Chicago Center
06:57AM 40.9147 -91.7289 221° Southwest 442 509 30,000  Level Chicago Center
06:58AM 40.8214 -91.8333 220° Southwest 444 511 30,000  Level Chicago Center
06:59AM 40.7269 -91.9375 220° Southwest 445 512 30,000  Level Chicago Center
07:00AM 40.6336 -92.0422 220° Southwest 446 513 30,000  Level Chicago Center
07:01AM 40.5206 -92.1669 220° Southwest 444 511 30,000  Level Kansas City Center
07:02AM 40.4264 -92.2711 220° Southwest 445 512 30,000  Level Kansas City Center
07:03AM 40.3497 -92.3561 220° Southwest 448 516 30,000  Level Chicago Center
07:04AM 40.2525 -92.4628 220° Southwest 448 516 30,000  Level Chicago Center
07:05AM 40.1533 -92.5711 220° Southwest 451 519 30,000  Level Chicago Center
07:06AM 40.0903 -92.7053 238° Southwest 431 496 30,000  Level Chicago Center
07:07AM 40.0258 -92.8722 243° Southwest 432 497 30,000  Level Kansas City Center
07:08AM 39.9717 -93.0128 243° Southwest 435 501 30,000 -120 Level Kansas City Center
07:09AM 39.9044 -93.1817 243° Southwest 439 505 29,800 -1,260 Descending Kansas City Center
07:10AM 39.8483 -93.3242 243° Southwest 444 511 27,500 -2,340 Descending Kansas City Center
07:11AM 39.7897 -93.4717 243° Southwest 456 525 25,100 -2,340 Descending Kansas City Center
07:12AM 39.7331 -93.6158 243° Southwest 455 524 22,800 -2,460 Descending Kansas City Center
07:13AM 39.6750 -93.7614 243° Southwest 439 505 20,200 -2,880 Descending Kansas City Center
07:14AM 39.6158 -93.8850 238° Southwest 423 487 17,100 -3,180 Descending Kansas City Center
07:15AM 39.5433 -93.9878 228° Southwest 404 465 13,800 -3,300 Descending Kansas City Center
07:16AM 39.4683 -94.0964 228° Southwest 357 411 10,500 -2,700 Descending Kansas City Center
07:17AM 39.4158 -94.1717 228° Southwest 296 341 8,400 -1,920 Descending Kansas City Center
07:19AM 39.3650 -94.2447 228° Southwest 286 329 6,700 -1,560 Descending Kansas City Center
07:20AM 39.2969 -94.3108 217° Southwest 272 313 5,300 -1,320 Descending Kansas City Center
07:21AM 39.2403 -94.3681 218° Southwest 270 311 4,100 -660 Descending Kansas City Center
07:22AM 39.1828 -94.4242 217° Southwest 270 311 4,000 -120 Descending Kansas City Center
07:23AM 39.1167 -94.4894 217° Southwest 267 307 3,900 -600 Descending Kansas City Center
07:24AM 39.0728 -94.5314 217° Southwest 196 226 2,900 -660 Descending Kansas City Center
07:25AM 39.0519 -94.5739 238° Southwest 150 173 2,600 -540 Descending Kansas City Center
07:26AM 39.0764 -94.6069 314° West 134 154 1,900 -780 Descending Kansas City Center
07:27AM 39.1153 -94.5947 14° North 135 155 1,100 -840 Descending Kansas City Center